Sardinia Regina — IBMS — position and weather

sailwx.info

Track history (hours):
 
Tides and Currents Weather Stations Pressure Air Temp Water Temp Dewpoint Dewpoint Depression Visibility Wind Speed Wind Dir Waves Ship Positions

Sardinia Regina

Last reported at 2014-Aug-28 10:34 UTC. Time now 2014-Aug-28 11:29 UTC.
Position N 43°58' E 008°46'.

Length 146 m; draft 5 m.

Type: Passenger vessel. MMSI: 247079000.

Date/timePositionNaut miles runAvg speedWind from/ knotsBaromVisibWave heightAir tempDewpointWater temp
2014-Aug-28 10:34N 43°58' E 008°46'1817.8
2014-Aug-28 09:33N 43°42' E 008°58'1818.0
2014-Aug-28 08:34N 43°27' E 009°11'1817.7
2014-Aug-28 07:34N 43°11' E 009°23'7 1.1
2014-Aug-28 01:33N 43°18' E 009°20'1717.0
2014-Aug-28 00:33N 43°32' E 009°06'1716.8
2014-Aug-27 23:34N 43°46' E 008°54'1716.7
2014-Aug-27 22:33N 44°00' E 008°42'1913.9
2014-Aug-27 21:11N 44°16' E 008°27'0 0.2
2014-Aug-27 20:24N 44°16' E 008°27'1213.9
2014-Aug-27 19:33N 44°07' E 008°37'1717.3
2014-Aug-27 18:33N 43°52' E 008°50'1717.4
2014-Aug-27 17:33N 43°37' E 009°02'1717.2
2014-Aug-27 16:33N 43°22' E 009°14'1717.1
2014-Aug-27 15:33N 43°07' E 009°26'6 1.1
2014-Aug-27 10:12N 43°13' E 009°22'1416.6
2014-Aug-27 09:22N 43°24' E 009°12'1316.5
2014-Aug-27 08:34N 43°36' E 009°02'1717.0
2014-Aug-27 07:34N 43°50' E 008°50'1717.1
2014-Aug-27 06:33N 44°05' E 008°38'1312.9
2014-Aug-27 05:31N 44°16' E 008°27'0 0.0
2014-Aug-27 04:33N 44°16' E 008°27'6 6.4
2014-Aug-27 03:34N 44°12' E 008°34'1111.3
2014-Aug-27 02:33N 44°01' E 008°40'1212.2
2014-Aug-27 01:33N 43°50' E 008°44'1211.9
2014-Aug-27 00:33N 43°39' E 008°53'1212.0
2014-Aug-26 23:33N 43°31' E 009°04'1211.9
2014-Aug-26 22:33N 43°21' E 009°15'27 3.8
2014-Aug-26 15:29N 43°01' E 009°39'1516.6
2014-Aug-26 14:33N 43°13' E 009°51'1616.4
2014-Aug-26 13:33N 43°25' E 010°07'1111.3
2014-Aug-26 12:34N 43°33' E 010°18'0 0.0
2014-Aug-26 11:34N 43°33' E 010°18'3 3.2
2014-Aug-26 10:34N 43°31' E 010°15'1515.3
2014-Aug-26 09:34N 43°20' E 010°00'1716.2
2014-Aug-26 08:30N 43°08' E 009°44'15 2.4
2014-Aug-26 02:06N 43°11' E 009°23'815.1
2014-Aug-26 01:34N 43°18' E 009°17'1515.1
2014-Aug-26 00:34N 43°31' E 009°07'1515.1
2014-Aug-25 23:34N 43°44' E 008°56'1515.4
2014-Aug-25 22:33N 43°57' E 008°45'2215.6
2014-Aug-25 21:10N 44°15' E 008°28'1 1.1
2014-Aug-25 20:06N 44°16' E 008°27'5 9.3
2014-Aug-25 19:33N 44°13' E 008°33'1717.5
2014-Aug-25 18:33N 43°58' E 008°45'1817.7
2014-Aug-25 17:33N 43°43' E 008°58'1717.5
2014-Aug-25 16:33N 43°28' E 009°11'1817.4
2014-Aug-25 15:31N 43°12' E 009°23'12 1.9
2014-Aug-25 09:23N 43°23' E 009°16'1417.0
2014-Aug-25 08:33N 43°34' E 009°05'1717.3
2014-Aug-25 07:33N 43°49' E 008°52'1717.2
2014-Aug-25 06:33N 44°03' E 008°39'1515.0
2014-Aug-25 05:32N 44°16' E 008°27'0 0.0
2014-Aug-25 04:33N 44°16' E 008°27'6 6.2
2014-Aug-25 03:33N 44°12' E 008°34'10 9.9
2014-Aug-25 02:33N 44°04' E 008°41'1212.0
2014-Aug-25 01:33N 43°53' E 008°49'1211.9
2014-Aug-25 00:33N 43°43' E 008°58'1211.9
2014-Aug-24 23:33N 43°33' E 009°06'1212.3
2014-Aug-24 22:33N 43°22' E 009°15'1211.6
2014-Aug-24 21:33N 43°12' E 009°23'26 4.2
2014-Aug-24 15:16N 42°53' E 009°48'1516.7
2014-Aug-24 14:22N 43°05' E 010°02'1417.4
2014-Aug-24 13:34N 43°18' E 010°07'1515.2
2014-Aug-24 12:33N 43°32' E 010°16'2 1.8
2014-Aug-24 11:33N 43°33' E 010°18'4 4.4
2014-Aug-24 10:33N 43°30' E 010°13'1515.4
2014-Aug-24 09:33N 43°19' E 009°59'29 4.0
2014-Aug-24 02:21N 43°17' E 009°19'1114.1
2014-Aug-24 01:33N 43°26' E 009°11'1514.5
2014-Aug-24 00:33N 43°39' E 009°00'1514.6
2014-Aug-23 23:33N 43°51' E 008°49'1514.7
2014-Aug-23 22:30N 44°04' E 008°38'1413.9
2014-Aug-23 21:29N 44°16' E 008°27'0 0.1
2014-Aug-23 20:33N 44°16' E 008°27'1010.3
2014-Aug-23 19:33N 44°08' E 008°36'2 0.2
2014-Aug-23 03:33N 44°10' E 008°34'1313.0
2014-Aug-23 02:33N 43°59' E 008°44'1313.2
2014-Aug-23 01:33N 43°48' E 008°55'1111.0
2014-Aug-23 00:33N 43°39' E 009°03'1010.1
2014-Aug-22 23:33N 43°30' E 009°09'1010.3
2014-Aug-22 22:33N 43°21' E 009°16'1010.2
2014-Aug-22 21:33N 43°13' E 009°23'10 9.9
2014-Aug-22 20:32N 43°04' E 009°30'9 9.3
2014-Aug-22 19:33N 42°55' E 009°31'13 4.3
2014-Aug-22 16:29N 42°42' E 009°27'1515.8
2014-Aug-22 15:34N 42°51' E 009°43'1716.5
2014-Aug-22 14:33N 43°03' E 009°59'1717.4
2014-Aug-22 13:34N 43°19' E 010°07'1515.1
2014-Aug-22 12:33N 43°32' E 010°17'1 1.1
2014-Aug-22 11:33N 43°33' E 010°18'5 4.8
2014-Aug-22 10:33N 43°30' E 010°13'1514.6
2014-Aug-22 09:33N 43°19' E 009°59'30 3.7
2014-Aug-22 01:25N 43°17' E 009°18'1112.7
2014-Aug-22 00:33N 43°26' E 009°11'1212.5
2014-Aug-21 23:33N 43°36' E 009°01'1312.9
2014-Aug-21 22:33N 43°48' E 008°52'1313.2
2014-Aug-21 21:33N 43°59' E 008°43'1613.2
2014-Aug-21 20:20N 44°13' E 008°31'5 5.8
2014-Aug-21 19:33N 44°16' E 008°27'0 0.0
2014-Aug-21 18:33N 44°16' E 008°27'0 0.0
2014-Aug-21 17:16N 44°16' E 008°27'0 0.0
2014-Aug-21 16:30N 44°16' E 008°27'0 0.0
2014-Aug-21 15:33N 44°16' E 008°27'0 0.0
2014-Aug-21 14:33N 44°16' E 008°27'0 0.0
2014-Aug-21 13:32N 44°16' E 008°27'3 2.0
2014-Aug-21 12:11N 44°15' E 008°31'1117.4
2014-Aug-21 11:33N 44°06' E 008°39'1717.3
2014-Aug-21 10:34N 43°51' E 008°51'1717.2
2014-Aug-21 09:34N 43°36' E 009°03'1717.1
2014-Aug-21 08:33N 43°22' E 009°15'2017.0
2014-Aug-21 07:23N 43°05' E 009°30'17 3.0
2014-Aug-21 01:34N 43°18' E 009°16'1717.0
2014-Aug-21 00:34N 43°33' E 009°04'1716.8
2014-Aug-20 23:34N 43°48' E 008°52'1616.0
2014-Aug-20 22:33N 44°01' E 008°41'1716.4
2014-Aug-20 21:32N 44°16' E 008°28'1 0.9
2014-Aug-20 20:32N 44°16' E 008°27'2 1.7
2014-Aug-20 19:33N 44°15' E 008°29'1817.5
2014-Aug-20 18:33N 44°01' E 008°42'1817.7
2014-Aug-20 17:33N 43°46' E 008°56'1817.5
2014-Aug-20 16:33N 43°31' E 009°09'1817.6
2014-Aug-20 15:33N 43°16' E 009°21'5 0.8
2014-Aug-20 09:32N 43°19' E 009°17'1717.6
2014-Aug-20 08:34N 43°34' E 009°05'1817.8
2014-Aug-20 07:34N 43°49' E 008°51'1817.7
2014-Aug-20 06:33N 44°04' E 008°39'1414.3
2014-Aug-20 05:33N 44°16' E 008°27'0 0.0
2014-Aug-20 04:31N 44°16' E 008°27'7 7.6
2014-Aug-20 03:33N 44°11' E 008°34'1313.2
2014-Aug-20 02:33N 43°59' E 008°43'1312.9
2014-Aug-20 01:33N 43°48' E 008°52'1111.3
2014-Aug-20 00:33N 43°39' E 009°01'1010.2
2014-Aug-19 23:33N 43°30' E 009°08'1010.0
2014-Aug-19 22:33N 43°21' E 009°15'10 9.6
2014-Aug-19 21:32N 43°13' E 009°22'18 2.6
2014-Aug-19 14:30N 43°10' E 009°46'1414.7
2014-Aug-19 13:33N 43°20' E 009°59'1514.8
2014-Aug-19 12:34N 43°31' E 010°13'4 4.3
2014-Aug-19 11:33N 43°33' E 010°18'3 2.5
2014-Aug-19 10:33N 43°31' E 010°16'1616.2
2014-Aug-19 09:33N 43°20' E 009°60'27 3.8
2014-Aug-19 02:20N 43°13' E 009°23'1114.4
2014-Aug-19 01:33N 43°23' E 009°14'1514.9
2014-Aug-19 00:33N 43°35' E 009°03'1515.3
2014-Aug-18 23:33N 43°48' E 008°52'1514.6
2014-Aug-18 22:33N 44°01' E 008°42'1514.9
2014-Aug-18 21:33N 44°13' E 008°31'4 3.5
2014-Aug-18 20:28N 44°16' E 008°27'0 0.1
2014-Aug-18 19:33N 44°16' E 008°27'1514.7
2014-Aug-18 18:33N 44°04' E 008°39'1818.2
2014-Aug-18 17:34N 43°49' E 008°53'1818.0
2014-Aug-18 16:34N 43°34' E 009°06'1818.0
2014-Aug-18 15:34N 43°18' E 009°18'  
Track history (hours):
 
Tides and Currents Weather Stations Pressure Air Temp Water Temp Dewpoint Dewpoint Depression Visibility Wind Speed Wind Dir Waves Ship Positions

Sardinia Regina

Last reported at 2014-Aug-28 10:34 UTC. Time now 2014-Aug-28 11:29 UTC.
Position N 43°58' E 008°46'.

Length 146 m; draft 5 m.

Type: Passenger vessel. MMSI: 247079000.

Date/timePositionNaut miles runAvg speedWind from/ knotsBaromVisibWave heightAir tempDewpointWater temp
2014-Aug-28 10:34N 43°58' E 008°46'1817.8
2014-Aug-28 09:33N 43°42' E 008°58'1818.0
2014-Aug-28 08:34N 43°27' E 009°11'1817.7
2014-Aug-28 07:34N 43°11' E 009°23'7 1.1
2014-Aug-28 01:33N 43°18' E 009°20'1717.0
2014-Aug-28 00:33N 43°32' E 009°06'1716.8
2014-Aug-27 23:34N 43°46' E 008°54'1716.7
2014-Aug-27 22:33N 44°00' E 008°42'1913.9
2014-Aug-27 21:11N 44°16' E 008°27'0 0.2
2014-Aug-27 20:24N 44°16' E 008°27'1213.9
2014-Aug-27 19:33N 44°07' E 008°37'1717.3
2014-Aug-27 18:33N 43°52' E 008°50'1717.4
2014-Aug-27 17:33N 43°37' E 009°02'1717.2
2014-Aug-27 16:33N 43°22' E 009°14'1717.1
2014-Aug-27 15:33N 43°07' E 009°26'6 1.1
2014-Aug-27 10:12N 43°13' E 009°22'1416.6
2014-Aug-27 09:22N 43°24' E 009°12'1316.5
2014-Aug-27 08:34N 43°36' E 009°02'1717.0
2014-Aug-27 07:34N 43°50' E 008°50'1717.1
2014-Aug-27 06:33N 44°05' E 008°38'1312.9
2014-Aug-27 05:31N 44°16' E 008°27'0 0.0
2014-Aug-27 04:33N 44°16' E 008°27'6 6.4
2014-Aug-27 03:34N 44°12' E 008°34'1111.3
2014-Aug-27 02:33N 44°01' E 008°40'1212.2
2014-Aug-27 01:33N 43°50' E 008°44'1211.9
2014-Aug-27 00:33N 43°39' E 008°53'1212.0
2014-Aug-26 23:33N 43°31' E 009°04'1211.9
2014-Aug-26 22:33N 43°21' E 009°15'27 3.8
2014-Aug-26 15:29N 43°01' E 009°39'1516.6
2014-Aug-26 14:33N 43°13' E 009°51'1616.4
2014-Aug-26 13:33N 43°25' E 010°07'1111.3
2014-Aug-26 12:34N 43°33' E 010°18'0 0.0
2014-Aug-26 11:34N 43°33' E 010°18'3 3.2
2014-Aug-26 10:34N 43°31' E 010°15'1515.3
2014-Aug-26 09:34N 43°20' E 010°00'1716.2
2014-Aug-26 08:30N 43°08' E 009°44'15 2.4
2014-Aug-26 02:06N 43°11' E 009°23'815.1
2014-Aug-26 01:34N 43°18' E 009°17'1515.1
2014-Aug-26 00:34N 43°31' E 009°07'1515.1
2014-Aug-25 23:34N 43°44' E 008°56'1515.4
2014-Aug-25 22:33N 43°57' E 008°45'2215.6
2014-Aug-25 21:10N 44°15' E 008°28'1 1.1
2014-Aug-25 20:06N 44°16' E 008°27'5 9.3
2014-Aug-25 19:33N 44°13' E 008°33'1717.5
2014-Aug-25 18:33N 43°58' E 008°45'1817.7
2014-Aug-25 17:33N 43°43' E 008°58'1717.5
2014-Aug-25 16:33N 43°28' E 009°11'1817.4
2014-Aug-25 15:31N 43°12' E 009°23'12 1.9
2014-Aug-25 09:23N 43°23' E 009°16'1417.0
2014-Aug-25 08:33N 43°34' E 009°05'1717.3
2014-Aug-25 07:33N 43°49' E 008°52'1717.2
2014-Aug-25 06:33N 44°03' E 008°39'1515.0
2014-Aug-25 05:32N 44°16' E 008°27'0 0.0
2014-Aug-25 04:33N 44°16' E 008°27'6 6.2
2014-Aug-25 03:33N 44°12' E 008°34'10 9.9
2014-Aug-25 02:33N 44°04' E 008°41'1212.0
2014-Aug-25 01:33N 43°53' E 008°49'1211.9
2014-Aug-25 00:33N 43°43' E 008°58'1211.9
2014-Aug-24 23:33N 43°33' E 009°06'1212.3
2014-Aug-24 22:33N 43°22' E 009°15'1211.6
2014-Aug-24 21:33N 43°12' E 009°23'26 4.2
2014-Aug-24 15:16N 42°53' E 009°48'1516.7
2014-Aug-24 14:22N 43°05' E 010°02'1417.4
2014-Aug-24 13:34N 43°18' E 010°07'1515.2
2014-Aug-24 12:33N 43°32' E 010°16'2 1.8
2014-Aug-24 11:33N 43°33' E 010°18'4 4.4
2014-Aug-24 10:33N 43°30' E 010°13'1515.4
2014-Aug-24 09:33N 43°19' E 009°59'29 4.0
2014-Aug-24 02:21N 43°17' E 009°19'1114.1
2014-Aug-24 01:33N 43°26' E 009°11'1514.5
2014-Aug-24 00:33N 43°39' E 009°00'1514.6
2014-Aug-23 23:33N 43°51' E 008°49'1514.7
2014-Aug-23 22:30N 44°04' E 008°38'1413.9
2014-Aug-23 21:29N 44°16' E 008°27'0 0.1
2014-Aug-23 20:33N 44°16' E 008°27'1010.3
2014-Aug-23 19:33N 44°08' E 008°36'2 0.2
2014-Aug-23 03:33N 44°10' E 008°34'1313.0
2014-Aug-23 02:33N 43°59' E 008°44'1313.2
2014-Aug-23 01:33N 43°48' E 008°55'1111.0
2014-Aug-23 00:33N 43°39' E 009°03'1010.1
2014-Aug-22 23:33N 43°30' E 009°09'1010.3
2014-Aug-22 22:33N 43°21' E 009°16'1010.2
2014-Aug-22 21:33N 43°13' E 009°23'10 9.9
2014-Aug-22 20:32N 43°04' E 009°30'9 9.3
2014-Aug-22 19:33N 42°55' E 009°31'13 4.3
2014-Aug-22 16:29N 42°42' E 009°27'1515.8
2014-Aug-22 15:34N 42°51' E 009°43'1716.5
2014-Aug-22 14:33N 43°03' E 009°59'1717.4
2014-Aug-22 13:34N 43°19' E 010°07'1515.1
2014-Aug-22 12:33N 43°32' E 010°17'1 1.1
2014-Aug-22 11:33N 43°33' E 010°18'5 4.8
2014-Aug-22 10:33N 43°30' E 010°13'1514.6
2014-Aug-22 09:33N 43°19' E 009°59'30 3.7
2014-Aug-22 01:25N 43°17' E 009°18'1112.7
2014-Aug-22 00:33N 43°26' E 009°11'1212.5
2014-Aug-21 23:33N 43°36' E 009°01'1312.9
2014-Aug-21 22:33N 43°48' E 008°52'1313.2
2014-Aug-21 21:33N 43°59' E 008°43'1613.2
2014-Aug-21 20:20N 44°13' E 008°31'5 5.8
2014-Aug-21 19:33N 44°16' E 008°27'0 0.0
2014-Aug-21 18:33N 44°16' E 008°27'0 0.0
2014-Aug-21 17:16N 44°16' E 008°27'0 0.0
2014-Aug-21 16:30N 44°16' E 008°27'0 0.0
2014-Aug-21 15:33N 44°16' E 008°27'0 0.0
2014-Aug-21 14:33N 44°16' E 008°27'0 0.0
2014-Aug-21 13:32N 44°16' E 008°27'3 2.0
2014-Aug-21 12:11N 44°15' E 008°31'1117.4
2014-Aug-21 11:33N 44°06' E 008°39'1717.3
2014-Aug-21 10:34N 43°51' E 008°51'1717.2
2014-Aug-21 09:34N 43°36' E 009°03'1717.1
2014-Aug-21 08:33N 43°22' E 009°15'2017.0
2014-Aug-21 07:23N 43°05' E 009°30'17 3.0
2014-Aug-21 01:34N 43°18' E 009°16'1717.0
2014-Aug-21 00:34N 43°33' E 009°04'1716.8
2014-Aug-20 23:34N 43°48' E 008°52'1616.0
2014-Aug-20 22:33N 44°01' E 008°41'1716.4
2014-Aug-20 21:32N 44°16' E 008°28'1 0.9
2014-Aug-20 20:32N 44°16' E 008°27'2 1.7
2014-Aug-20 19:33N 44°15' E 008°29'1817.5
2014-Aug-20 18:33N 44°01' E 008°42'1817.7
2014-Aug-20 17:33N 43°46' E 008°56'1817.5
2014-Aug-20 16:33N 43°31' E 009°09'1817.6
2014-Aug-20 15:33N 43°16' E 009°21'5 0.8
2014-Aug-20 09:32N 43°19' E 009°17'1717.6
2014-Aug-20 08:34N 43°34' E 009°05'1817.8
2014-Aug-20 07:34N 43°49' E 008°51'1817.7
2014-Aug-20 06:33N 44°04' E 008°39'1414.3
2014-Aug-20 05:33N 44°16' E 008°27'0 0.0
2014-Aug-20 04:31N 44°16' E 008°27'7 7.6
2014-Aug-20 03:33N 44°11' E 008°34'1313.2
2014-Aug-20 02:33N 43°59' E 008°43'1312.9
2014-Aug-20 01:33N 43°48' E 008°52'1111.3
2014-Aug-20 00:33N 43°39' E 009°01'1010.2
2014-Aug-19 23:33N 43°30' E 009°08'1010.0
2014-Aug-19 22:33N 43°21' E 009°15'10 9.6
2014-Aug-19 21:32N 43°13' E 009°22'18 2.6
2014-Aug-19 14:30N 43°10' E 009°46'1414.7
2014-Aug-19 13:33N 43°20' E 009°59'1514.8
2014-Aug-19 12:34N 43°31' E 010°13'4 4.3
2014-Aug-19 11:33N 43°33' E 010°18'3 2.5
2014-Aug-19 10:33N 43°31' E 010°16'1616.2
2014-Aug-19 09:33N 43°20' E 009°60'27 3.8
2014-Aug-19 02:20N 43°13' E 009°23'1114.4
2014-Aug-19 01:33N 43°23' E 009°14'1514.9
2014-Aug-19 00:33N 43°35' E 009°03'1515.3
2014-Aug-18 23:33N 43°48' E 008°52'1514.6
2014-Aug-18 22:33N 44°01' E 008°42'1514.9
2014-Aug-18 21:33N 44°13' E 008°31'4 3.5
2014-Aug-18 20:28N 44°16' E 008°27'0 0.1
2014-Aug-18 19:33N 44°16' E 008°27'1514.7
2014-Aug-18 18:33N 44°04' E 008°39'1818.2
2014-Aug-18 17:34N 43°49' E 008°53'1818.0
2014-Aug-18 16:34N 43°34' E 009°06'1818.0
2014-Aug-18 15:34N 43°18' E 009°18'  

Dump ship's entire track history